Missing Link — ZGEQ3 — position and weather

sailwx.info

Track history (hours):
 
Tides and Currents Weather Stations Pressure Air Temp Water Temp Dewpoint Dewpoint Depression Visibility Wind Speed Wind Dir Waves Ship Positions

Missing Link

Last reported at 2017-Dec-18 21:24 UTC. Time now 2018-Feb-19 14:31 UTC.
Position N 25°35' W 079°52'.
Warning: this ship's position is months out of date.

Length 48 m; draft 2.8 m.

Type: Pleasure craft. MMSI: 319077100.

Date/timePositionNaut miles runAvg speedWind from/ knotsBaromVisibWave heightAir tempDewpointWater temp
2017-Dec-18 21:24N 25°35' W 079°52'3 8.6
2017-Dec-18 21:00N 25°39' W 079°53'4 8.5
2017-Dec-18 20:30N 25°43' W 079°55'4 8.3
2017-Dec-18 20:01N 25°47' W 079°56'4 8.3
2017-Dec-18 19:30N 25°51' W 079°57'4 8.6
2017-Dec-18 19:00N 25°55' W 079°59'4 8.7
2017-Dec-18 18:30N 25°59' W 080°00'4 8.2
2017-Dec-18 18:00N 26°03' W 080°02'4 7.8
2017-Dec-18 17:30N 26°05' W 080°05'2 4.4
2017-Dec-18 17:00N 26°06' W 080°07'1 1.6
2017-Dec-18 16:30N 26°07' W 080°07'0 0.1
2017-Dec-18 16:00N 26°07' W 080°07'0 0.0
2017-Dec-18 15:30N 26°07' W 080°07'0 0.0
2017-Dec-18 15:00N 26°07' W 080°07'0 0.0
2017-Dec-18 14:30N 26°07' W 080°07'0 0.0
2017-Dec-18 13:59N 26°07' W 080°07'0 0.4
2017-Dec-18 13:29N 26°07' W 080°06'0 0.0
2017-Dec-18 12:53N 26°07' W 080°06'0 0.0
2017-Dec-18 12:26N 26°07' W 080°06'0 0.0
2017-Dec-18 11:56N 26°07' W 080°06'0 0.0
2017-Dec-18 11:23N 26°07' W 080°06'0 0.0
2017-Dec-18 10:59N 26°07' W 080°06'0 0.0
2017-Dec-18 10:29N 26°07' W 080°06'0 0.0
2017-Dec-18 09:53N 26°07' W 080°06'0 0.0
2017-Dec-18 09:29N 26°07' W 080°06'0 0.0
2017-Dec-18 08:59N 26°07' W 080°06'0 0.0
2017-Dec-18 08:29N 26°07' W 080°06'0 0.0
2017-Dec-18 07:59N 26°07' W 080°06'0 0.0
2017-Dec-18 07:29N 26°07' W 080°06'0 0.0
2017-Dec-18 06:59N 26°07' W 080°06'0 0.0
2017-Dec-18 06:29N 26°07' W 080°06'0 0.0
2017-Dec-18 05:56N 26°07' W 080°06'0 0.0
2017-Dec-18 05:29N 26°07' W 080°06'0 0.0
2017-Dec-18 04:59N 26°07' W 080°06'0 0.0
2017-Dec-18 04:29N 26°07' W 080°06'0 0.0
2017-Dec-18 03:59N 26°07' W 080°06'0 0.0
2017-Dec-18 03:29N 26°07' W 080°06'0 0.0
2017-Dec-18 02:59N 26°07' W 080°06'0 0.0
2017-Dec-18 02:29N 26°07' W 080°06'0 0.0
2017-Dec-18 01:59N 26°07' W 080°06'0 0.0
2017-Dec-18 01:23N 26°07' W 080°06'0 0.0
2017-Dec-18 00:53N 26°07' W 080°06'0 0.0
2017-Dec-18 00:29N 26°07' W 080°06'0 0.0
2017-Dec-17 23:53N 26°07' W 080°06'0 0.0
2017-Dec-17 23:29N 26°07' W 080°06'0 0.0
2017-Dec-17 22:59N 26°07' W 080°06'0 0.0
2017-Dec-17 22:23N 26°07' W 080°06'0 0.0
2017-Dec-17 21:53N 26°07' W 080°06'0 0.0
2017-Dec-17 21:29N 26°07' W 080°06'0 0.0
2017-Dec-17 20:53N 26°07' W 080°06'0 0.0
2017-Dec-17 20:29N 26°07' W 080°06'0 0.0
2017-Dec-17 19:56N 26°07' W 080°06'0 0.0
2017-Dec-17 19:26N 26°07' W 080°06'0 0.0
2017-Dec-17 18:59N 26°07' W 080°06'0 0.0
2017-Dec-17 18:29N 26°07' W 080°06'0 0.0
2017-Dec-17 17:59N 26°07' W 080°06'0 0.0
2017-Dec-17 17:29N 26°07' W 080°06'0 0.0
2017-Dec-17 16:59N 26°07' W 080°06'0 0.0
2017-Dec-17 16:29N 26°07' W 080°06'0 0.0
2017-Dec-17 15:59N 26°07' W 080°06'0 0.0
2017-Dec-17 15:29N 26°07' W 080°06'0 0.0
2017-Dec-17 14:59N 26°07' W 080°06'0 0.0
2017-Dec-17 14:29N 26°07' W 080°06'0 0.0
2017-Dec-17 13:59N 26°07' W 080°06'0 0.0
2017-Dec-17 13:29N 26°07' W 080°06'0 0.0
2017-Dec-17 12:59N 26°07' W 080°06'0 0.0
2017-Dec-17 12:29N 26°07' W 080°06'0 0.0
2017-Dec-17 11:47N 26°07' W 080°06'0 0.0
2017-Dec-17 11:17N 26°07' W 080°06'0 0.0
2017-Dec-17 10:59N 26°07' W 080°06'0 0.0
2017-Dec-17 10:29N 26°07' W 080°06'0 0.0
2017-Dec-17 09:47N 26°07' W 080°06'0 0.0
2017-Dec-17 09:29N 26°07' W 080°06'0 0.0
2017-Dec-17 08:59N 26°07' W 080°06'0 0.0
2017-Dec-17 08:23N 26°07' W 080°06'0 0.0
2017-Dec-17 07:53N 26°07' W 080°06'0 0.0
2017-Dec-17 07:29N 26°07' W 080°06'0 0.0
2017-Dec-17 06:50N 26°07' W 080°06'0 0.0
2017-Dec-17 06:29N 26°07' W 080°06'0 0.0
2017-Dec-17 05:59N 26°07' W 080°06'0 0.0
2017-Dec-17 05:29N 26°07' W 080°06'0 0.0
2017-Dec-17 04:59N 26°07' W 080°06'0 0.0
2017-Dec-17 04:26N 26°07' W 080°06'0 0.0
2017-Dec-17 03:56N 26°07' W 080°06'0 0.0
2017-Dec-17 03:29N 26°07' W 080°06'0 0.0
2017-Dec-17 02:59N 26°07' W 080°06'0 0.0
2017-Dec-17 02:29N 26°07' W 080°06'0 0.0
2017-Dec-17 01:59N 26°07' W 080°06'0 0.0
2017-Dec-17 01:29N 26°07' W 080°06'0 0.0
2017-Dec-17 00:59N 26°07' W 080°06'0 0.0
2017-Dec-17 00:26N 26°07' W 080°06'0 0.0
2017-Dec-16 23:59N 26°07' W 080°06'0 0.0
2017-Dec-16 23:29N 26°07' W 080°06'0 0.0
2017-Dec-16 22:59N 26°07' W 080°06'0 0.0
2017-Dec-16 22:29N 26°07' W 080°06'0 0.0
2017-Dec-16 21:59N 26°07' W 080°06'0 0.0
2017-Dec-16 21:23N 26°07' W 080°06'0 0.0
2017-Dec-16 20:59N 26°07' W 080°06'0 0.0
2017-Dec-16 20:23N 26°07' W 080°06'0 0.0
2017-Dec-16 19:59N 26°07' W 080°06'0 0.0
2017-Dec-16 19:29N 26°07' W 080°06'0 0.0
2017-Dec-16 18:59N 26°07' W 080°06'0 0.0
2017-Dec-16 18:29N 26°07' W 080°06'0 0.0
2017-Dec-16 17:59N 26°07' W 080°06'0 0.0
2017-Dec-16 17:23N 26°07' W 080°06'0 0.0
2017-Dec-16 16:53N 26°07' W 080°06'0 0.0
2017-Dec-16 16:29N 26°07' W 080°06'0 0.0
2017-Dec-16 15:59N 26°07' W 080°06'0 0.0
2017-Dec-16 15:26N 26°07' W 080°06'0 0.0
2017-Dec-16 14:59N 26°07' W 080°06'0 0.0
2017-Dec-16 14:26N 26°07' W 080°06'0 0.0
2017-Dec-16 13:56N 26°07' W 080°06'0 0.0
2017-Dec-16 13:29N 26°07' W 080°06'0 0.0
2017-Dec-16 12:56N 26°07' W 080°06'0 0.0
2017-Dec-16 12:23N 26°07' W 080°06'0 0.0
2017-Dec-16 11:59N 26°07' W 080°06'0 0.0
2017-Dec-16 11:29N 26°07' W 080°06'0 0.0
2017-Dec-16 10:59N 26°07' W 080°06'0 0.0
2017-Dec-16 10:26N 26°07' W 080°06'0 0.0
2017-Dec-16 09:59N 26°07' W 080°06'0 0.0
2017-Dec-16 09:29N 26°07' W 080°06'0 0.0
2017-Dec-16 08:59N 26°07' W 080°06'0 0.0
2017-Dec-16 08:29N 26°07' W 080°06'0 0.0
2017-Dec-16 07:59N 26°07' W 080°06'0 0.0
2017-Dec-16 07:29N 26°07' W 080°06'0 0.0
2017-Dec-16 06:59N 26°07' W 080°06'0 0.0
2017-Dec-16 06:29N 26°07' W 080°06'0 0.0
2017-Dec-16 05:56N 26°07' W 080°06'0 0.0
2017-Dec-16 05:20N 26°07' W 080°06'0 0.0
2017-Dec-16 04:50N 26°07' W 080°06'0 0.0
2017-Dec-16 04:23N 26°07' W 080°06'0 0.0
2017-Dec-16 03:53N 26°07' W 080°06'0 0.0
2017-Dec-16 03:29N 26°07' W 080°06'0 0.0
2017-Dec-16 02:53N 26°07' W 080°06'0 0.0
2017-Dec-16 02:29N 26°07' W 080°06'0 0.0
2017-Dec-16 01:53N 26°07' W 080°06'0 0.0
2017-Dec-16 01:29N 26°07' W 080°06'0 0.0
2017-Dec-16 00:56N 26°07' W 080°06'0 0.0
2017-Dec-16 00:29N 26°07' W 080°06'0 0.0
2017-Dec-15 23:59N 26°07' W 080°06'0 0.0
2017-Dec-15 23:23N 26°07' W 080°06'0 0.0
2017-Dec-15 22:59N 26°07' W 080°06'0 0.0
2017-Dec-15 22:29N 26°07' W 080°06'0 0.0
2017-Dec-15 21:59N 26°07' W 080°06'0 0.0
2017-Dec-15 21:29N 26°07' W 080°06'0 0.0
2017-Dec-15 20:59N 26°07' W 080°06'0 0.0
2017-Dec-15 20:29N 26°07' W 080°06'0 0.0
2017-Dec-15 19:59N 26°07' W 080°06'0 0.0
2017-Dec-15 19:29N 26°07' W 080°06'0 0.0
2017-Dec-15 18:53N 26°07' W 080°06'0 0.0
2017-Dec-15 18:29N 26°07' W 080°06'0 0.0
2017-Dec-15 17:59N 26°07' W 080°06'0 0.0
2017-Dec-15 17:29N 26°07' W 080°06'0 0.0
2017-Dec-15 16:59N 26°07' W 080°06'0 0.0
2017-Dec-15 16:29N 26°07' W 080°06'0 0.0
2017-Dec-15 15:59N 26°07' W 080°06'0 0.0
2017-Dec-15 15:20N 26°07' W 080°06'0 0.0
2017-Dec-15 14:35N 26°07' W 080°06'0 0.0
2017-Dec-15 14:05N 26°07' W 080°06'0 0.0
2017-Dec-15 13:59N 26°07' W 080°06'0 0.0
2017-Dec-15 13:29N 26°07' W 080°06'0 0.0
2017-Dec-15 12:50N 26°07' W 080°06'0 0.0
2017-Dec-15 12:23N 26°07' W 080°06'0 0.0
2017-Dec-15 11:53N 26°07' W 080°06'0 0.0
2017-Dec-15 11:23N 26°07' W 080°06'0 0.0
2017-Dec-15 10:59N 26°07' W 080°06'0 0.0
2017-Dec-15 10:23N 26°07' W 080°06'0 0.0
2017-Dec-15 09:59N 26°07' W 080°06'0 0.0
2017-Dec-15 09:25N 26°07' W 080°06'0 0.0
2017-Dec-15 08:55N 26°07' W 080°06'0 0.0
2017-Dec-15 08:29N 26°07' W 080°06'0 0.0
2017-Dec-15 07:59N 26°07' W 080°06'0 0.0
2017-Dec-15 07:26N 26°07' W 080°06'0 0.0
2017-Dec-15 06:58N 26°07' W 080°06'0 0.0
2017-Dec-15 06:29N 26°07' W 080°06'0 0.0
2017-Dec-15 05:55N 26°07' W 080°06'0 0.0
2017-Dec-15 05:28N 26°07' W 080°06'0 0.0
2017-Dec-15 04:59N 26°07' W 080°06'0 0.0
2017-Dec-15 04:28N 26°07' W 080°06'0 0.0
2017-Dec-15 03:59N 26°07' W 080°06'0 0.0
2017-Dec-15 02:28N 26°07' W 080°06'0 0.0
2017-Dec-15 00:58N 26°07' W 080°06'0 0.0
2017-Dec-15 00:29N 26°07' W 080°06'  
2017-Dec-09 14:26N 26°16' W 080°05'0 0.0
2017-Dec-09 13:44N 26°16' W 080°05'0 0.0
2017-Dec-09 13:08N 26°16' W 080°05'0 0.0
2017-Dec-09 12:56N 26°16' W 080°05'0 0.0
2017-Dec-09 11:29N 26°16' W 080°05'0 0.0
2017-Dec-09 07:32N 26°16' W 080°05'0 0.0
2017-Dec-09 07:14N 26°16' W 080°05'0 0.0
2017-Dec-09 06:29N 26°16' W 080°05'0 0.0
2017-Dec-09 03:32N 26°16' W 080°05'0 0.0
2017-Dec-09 03:05N 26°16' W 080°05'0 0.0
2017-Dec-08 23:40N 26°16' W 080°05'0 0.0
2017-Dec-08 23:22N 26°16' W 080°05'0 0.0
2017-Dec-08 22:14N 26°16' W 080°05'0 0.0
2017-Dec-08 21:56N 26°16' W 080°05'0 0.0
2017-Dec-08 21:25N 26°16' W 080°05'  
Track history (hours):
 
Tides and Currents Weather Stations Pressure Air Temp Water Temp Dewpoint Dewpoint Depression Visibility Wind Speed Wind Dir Waves Ship Positions

Missing Link

Last reported at 2017-Dec-18 21:24 UTC. Time now 2018-Feb-19 14:31 UTC.
Position N 25°35' W 079°52'.
Warning: this ship's position is months out of date.

Length 48 m; draft 2.8 m.

Type: Pleasure craft. MMSI: 319077100.

Date/timePositionNaut miles runAvg speedWind from/ knotsBaromVisibWave heightAir tempDewpointWater temp
2017-Dec-18 21:24N 25°35' W 079°52'3 8.6
2017-Dec-18 21:00N 25°39' W 079°53'4 8.5
2017-Dec-18 20:30N 25°43' W 079°55'4 8.3
2017-Dec-18 20:01N 25°47' W 079°56'4 8.3
2017-Dec-18 19:30N 25°51' W 079°57'4 8.6
2017-Dec-18 19:00N 25°55' W 079°59'4 8.7
2017-Dec-18 18:30N 25°59' W 080°00'4 8.2
2017-Dec-18 18:00N 26°03' W 080°02'4 7.8
2017-Dec-18 17:30N 26°05' W 080°05'2 4.4
2017-Dec-18 17:00N 26°06' W 080°07'1 1.6
2017-Dec-18 16:30N 26°07' W 080°07'0 0.1
2017-Dec-18 16:00N 26°07' W 080°07'0 0.0
2017-Dec-18 15:30N 26°07' W 080°07'0 0.0
2017-Dec-18 15:00N 26°07' W 080°07'0 0.0
2017-Dec-18 14:30N 26°07' W 080°07'0 0.0
2017-Dec-18 13:59N 26°07' W 080°07'0 0.4
2017-Dec-18 13:29N 26°07' W 080°06'0 0.0
2017-Dec-18 12:53N 26°07' W 080°06'0 0.0
2017-Dec-18 12:26N 26°07' W 080°06'0 0.0
2017-Dec-18 11:56N 26°07' W 080°06'0 0.0
2017-Dec-18 11:23N 26°07' W 080°06'0 0.0
2017-Dec-18 10:59N 26°07' W 080°06'0 0.0
2017-Dec-18 10:29N 26°07' W 080°06'0 0.0
2017-Dec-18 09:53N 26°07' W 080°06'0 0.0
2017-Dec-18 09:29N 26°07' W 080°06'0 0.0
2017-Dec-18 08:59N 26°07' W 080°06'0 0.0
2017-Dec-18 08:29N 26°07' W 080°06'0 0.0
2017-Dec-18 07:59N 26°07' W 080°06'0 0.0
2017-Dec-18 07:29N 26°07' W 080°06'0 0.0
2017-Dec-18 06:59N 26°07' W 080°06'0 0.0
2017-Dec-18 06:29N 26°07' W 080°06'0 0.0
2017-Dec-18 05:56N 26°07' W 080°06'0 0.0
2017-Dec-18 05:29N 26°07' W 080°06'0 0.0
2017-Dec-18 04:59N 26°07' W 080°06'0 0.0
2017-Dec-18 04:29N 26°07' W 080°06'0 0.0
2017-Dec-18 03:59N 26°07' W 080°06'0 0.0
2017-Dec-18 03:29N 26°07' W 080°06'0 0.0
2017-Dec-18 02:59N 26°07' W 080°06'0 0.0
2017-Dec-18 02:29N 26°07' W 080°06'0 0.0
2017-Dec-18 01:59N 26°07' W 080°06'0 0.0
2017-Dec-18 01:23N 26°07' W 080°06'0 0.0
2017-Dec-18 00:53N 26°07' W 080°06'0 0.0
2017-Dec-18 00:29N 26°07' W 080°06'0 0.0
2017-Dec-17 23:53N 26°07' W 080°06'0 0.0
2017-Dec-17 23:29N 26°07' W 080°06'0 0.0
2017-Dec-17 22:59N 26°07' W 080°06'0 0.0
2017-Dec-17 22:23N 26°07' W 080°06'0 0.0
2017-Dec-17 21:53N 26°07' W 080°06'0 0.0
2017-Dec-17 21:29N 26°07' W 080°06'0 0.0
2017-Dec-17 20:53N 26°07' W 080°06'0 0.0
2017-Dec-17 20:29N 26°07' W 080°06'0 0.0
2017-Dec-17 19:56N 26°07' W 080°06'0 0.0
2017-Dec-17 19:26N 26°07' W 080°06'0 0.0
2017-Dec-17 18:59N 26°07' W 080°06'0 0.0
2017-Dec-17 18:29N 26°07' W 080°06'0 0.0
2017-Dec-17 17:59N 26°07' W 080°06'0 0.0
2017-Dec-17 17:29N 26°07' W 080°06'0 0.0
2017-Dec-17 16:59N 26°07' W 080°06'0 0.0
2017-Dec-17 16:29N 26°07' W 080°06'0 0.0
2017-Dec-17 15:59N 26°07' W 080°06'0 0.0
2017-Dec-17 15:29N 26°07' W 080°06'0 0.0
2017-Dec-17 14:59N 26°07' W 080°06'0 0.0
2017-Dec-17 14:29N 26°07' W 080°06'0 0.0
2017-Dec-17 13:59N 26°07' W 080°06'0 0.0
2017-Dec-17 13:29N 26°07' W 080°06'0 0.0
2017-Dec-17 12:59N 26°07' W 080°06'0 0.0
2017-Dec-17 12:29N 26°07' W 080°06'0 0.0
2017-Dec-17 11:47N 26°07' W 080°06'0 0.0
2017-Dec-17 11:17N 26°07' W 080°06'0 0.0
2017-Dec-17 10:59N 26°07' W 080°06'0 0.0
2017-Dec-17 10:29N 26°07' W 080°06'0 0.0
2017-Dec-17 09:47N 26°07' W 080°06'0 0.0
2017-Dec-17 09:29N 26°07' W 080°06'0 0.0
2017-Dec-17 08:59N 26°07' W 080°06'0 0.0
2017-Dec-17 08:23N 26°07' W 080°06'0 0.0
2017-Dec-17 07:53N 26°07' W 080°06'0 0.0
2017-Dec-17 07:29N 26°07' W 080°06'0 0.0
2017-Dec-17 06:50N 26°07' W 080°06'0 0.0
2017-Dec-17 06:29N 26°07' W 080°06'0 0.0
2017-Dec-17 05:59N 26°07' W 080°06'0 0.0
2017-Dec-17 05:29N 26°07' W 080°06'0 0.0
2017-Dec-17 04:59N 26°07' W 080°06'0 0.0
2017-Dec-17 04:26N 26°07' W 080°06'0 0.0
2017-Dec-17 03:56N 26°07' W 080°06'0 0.0
2017-Dec-17 03:29N 26°07' W 080°06'0 0.0
2017-Dec-17 02:59N 26°07' W 080°06'0 0.0
2017-Dec-17 02:29N 26°07' W 080°06'0 0.0
2017-Dec-17 01:59N 26°07' W 080°06'0 0.0
2017-Dec-17 01:29N 26°07' W 080°06'0 0.0
2017-Dec-17 00:59N 26°07' W 080°06'0 0.0
2017-Dec-17 00:26N 26°07' W 080°06'0 0.0
2017-Dec-16 23:59N 26°07' W 080°06'0 0.0
2017-Dec-16 23:29N 26°07' W 080°06'0 0.0
2017-Dec-16 22:59N 26°07' W 080°06'0 0.0
2017-Dec-16 22:29N 26°07' W 080°06'0 0.0
2017-Dec-16 21:59N 26°07' W 080°06'0 0.0
2017-Dec-16 21:23N 26°07' W 080°06'0 0.0
2017-Dec-16 20:59N 26°07' W 080°06'0 0.0
2017-Dec-16 20:23N 26°07' W 080°06'0 0.0
2017-Dec-16 19:59N 26°07' W 080°06'0 0.0
2017-Dec-16 19:29N 26°07' W 080°06'0 0.0
2017-Dec-16 18:59N 26°07' W 080°06'0 0.0
2017-Dec-16 18:29N 26°07' W 080°06'0 0.0
2017-Dec-16 17:59N 26°07' W 080°06'0 0.0
2017-Dec-16 17:23N 26°07' W 080°06'0 0.0
2017-Dec-16 16:53N 26°07' W 080°06'0 0.0
2017-Dec-16 16:29N 26°07' W 080°06'0 0.0
2017-Dec-16 15:59N 26°07' W 080°06'0 0.0
2017-Dec-16 15:26N 26°07' W 080°06'0 0.0
2017-Dec-16 14:59N 26°07' W 080°06'0 0.0
2017-Dec-16 14:26N 26°07' W 080°06'0 0.0
2017-Dec-16 13:56N 26°07' W 080°06'0 0.0
2017-Dec-16 13:29N 26°07' W 080°06'0 0.0
2017-Dec-16 12:56N 26°07' W 080°06'0 0.0
2017-Dec-16 12:23N 26°07' W 080°06'0 0.0
2017-Dec-16 11:59N 26°07' W 080°06'0 0.0
2017-Dec-16 11:29N 26°07' W 080°06'0 0.0
2017-Dec-16 10:59N 26°07' W 080°06'0 0.0
2017-Dec-16 10:26N 26°07' W 080°06'0 0.0
2017-Dec-16 09:59N 26°07' W 080°06'0 0.0
2017-Dec-16 09:29N 26°07' W 080°06'0 0.0
2017-Dec-16 08:59N 26°07' W 080°06'0 0.0
2017-Dec-16 08:29N 26°07' W 080°06'0 0.0
2017-Dec-16 07:59N 26°07' W 080°06'0 0.0
2017-Dec-16 07:29N 26°07' W 080°06'0 0.0
2017-Dec-16 06:59N 26°07' W 080°06'0 0.0
2017-Dec-16 06:29N 26°07' W 080°06'0 0.0
2017-Dec-16 05:56N 26°07' W 080°06'0 0.0
2017-Dec-16 05:20N 26°07' W 080°06'0 0.0
2017-Dec-16 04:50N 26°07' W 080°06'0 0.0
2017-Dec-16 04:23N 26°07' W 080°06'0 0.0
2017-Dec-16 03:53N 26°07' W 080°06'0 0.0
2017-Dec-16 03:29N 26°07' W 080°06'0 0.0
2017-Dec-16 02:53N 26°07' W 080°06'0 0.0
2017-Dec-16 02:29N 26°07' W 080°06'0 0.0
2017-Dec-16 01:53N 26°07' W 080°06'0 0.0
2017-Dec-16 01:29N 26°07' W 080°06'0 0.0
2017-Dec-16 00:56N 26°07' W 080°06'0 0.0
2017-Dec-16 00:29N 26°07' W 080°06'0 0.0
2017-Dec-15 23:59N 26°07' W 080°06'0 0.0
2017-Dec-15 23:23N 26°07' W 080°06'0 0.0
2017-Dec-15 22:59N 26°07' W 080°06'0 0.0
2017-Dec-15 22:29N 26°07' W 080°06'0 0.0
2017-Dec-15 21:59N 26°07' W 080°06'0 0.0
2017-Dec-15 21:29N 26°07' W 080°06'0 0.0
2017-Dec-15 20:59N 26°07' W 080°06'0 0.0
2017-Dec-15 20:29N 26°07' W 080°06'0 0.0
2017-Dec-15 19:59N 26°07' W 080°06'0 0.0
2017-Dec-15 19:29N 26°07' W 080°06'0 0.0
2017-Dec-15 18:53N 26°07' W 080°06'0 0.0
2017-Dec-15 18:29N 26°07' W 080°06'0 0.0
2017-Dec-15 17:59N 26°07' W 080°06'0 0.0
2017-Dec-15 17:29N 26°07' W 080°06'0 0.0
2017-Dec-15 16:59N 26°07' W 080°06'0 0.0
2017-Dec-15 16:29N 26°07' W 080°06'0 0.0
2017-Dec-15 15:59N 26°07' W 080°06'0 0.0
2017-Dec-15 15:20N 26°07' W 080°06'0 0.0
2017-Dec-15 14:35N 26°07' W 080°06'0 0.0
2017-Dec-15 14:05N 26°07' W 080°06'0 0.0
2017-Dec-15 13:59N 26°07' W 080°06'0 0.0
2017-Dec-15 13:29N 26°07' W 080°06'0 0.0
2017-Dec-15 12:50N 26°07' W 080°06'0 0.0
2017-Dec-15 12:23N 26°07' W 080°06'0 0.0
2017-Dec-15 11:53N 26°07' W 080°06'0 0.0
2017-Dec-15 11:23N 26°07' W 080°06'0 0.0
2017-Dec-15 10:59N 26°07' W 080°06'0 0.0
2017-Dec-15 10:23N 26°07' W 080°06'0 0.0
2017-Dec-15 09:59N 26°07' W 080°06'0 0.0
2017-Dec-15 09:25N 26°07' W 080°06'0 0.0
2017-Dec-15 08:55N 26°07' W 080°06'0 0.0
2017-Dec-15 08:29N 26°07' W 080°06'0 0.0
2017-Dec-15 07:59N 26°07' W 080°06'0 0.0
2017-Dec-15 07:26N 26°07' W 080°06'0 0.0
2017-Dec-15 06:58N 26°07' W 080°06'0 0.0
2017-Dec-15 06:29N 26°07' W 080°06'0 0.0
2017-Dec-15 05:55N 26°07' W 080°06'0 0.0
2017-Dec-15 05:28N 26°07' W 080°06'0 0.0
2017-Dec-15 04:59N 26°07' W 080°06'0 0.0
2017-Dec-15 04:28N 26°07' W 080°06'0 0.0
2017-Dec-15 03:59N 26°07' W 080°06'0 0.0
2017-Dec-15 02:28N 26°07' W 080°06'0 0.0
2017-Dec-15 00:58N 26°07' W 080°06'0 0.0
2017-Dec-15 00:29N 26°07' W 080°06'  
2017-Dec-09 14:26N 26°16' W 080°05'0 0.0
2017-Dec-09 13:44N 26°16' W 080°05'0 0.0
2017-Dec-09 13:08N 26°16' W 080°05'0 0.0
2017-Dec-09 12:56N 26°16' W 080°05'0 0.0
2017-Dec-09 11:29N 26°16' W 080°05'0 0.0
2017-Dec-09 07:32N 26°16' W 080°05'0 0.0
2017-Dec-09 07:14N 26°16' W 080°05'0 0.0
2017-Dec-09 06:29N 26°16' W 080°05'0 0.0
2017-Dec-09 03:32N 26°16' W 080°05'0 0.0
2017-Dec-09 03:05N 26°16' W 080°05'0 0.0
2017-Dec-08 23:40N 26°16' W 080°05'0 0.0
2017-Dec-08 23:22N 26°16' W 080°05'0 0.0
2017-Dec-08 22:14N 26°16' W 080°05'0 0.0
2017-Dec-08 21:56N 26°16' W 080°05'0 0.0
2017-Dec-08 21:25N 26°16' W 080°05'  

Dump ship's entire track history